createdAt,value
2019-06-20T00:02:24.090Z,99748.67
2019-06-20T00:04:52.679Z,99752.80
2019-06-20T00:07:21.141Z,99764.03
2019-06-20T00:09:52.403Z,99762.61
2019-06-20T00:12:20.381Z,99768.56
2019-06-20T00:14:48.848Z,99777.76
2019-06-20T00:17:17.447Z,99786.11
2019-06-20T00:19:45.899Z,99785.80
2019-06-20T00:22:14.516Z,99787.66
2019-06-20T00:24:43.040Z,99787.16
2019-06-20T00:27:11.607Z,99796.44
2019-06-20T00:29:40.192Z,99796.78
2019-06-20T00:32:08.825Z,99797.09
2019-06-20T00:34:37.470Z,99797.94
2019-06-20T00:37:06.081Z,99791.00
2019-06-20T00:39:34.623Z,99799.94
2019-06-20T00:42:03.260Z,99798.92
2019-06-20T00:44:31.842Z,99800.08
2019-06-20T00:47:00.436Z,99797.20
2019-06-20T00:49:28.971Z,99799.71
2019-06-20T00:51:57.496Z,99804.45
2019-06-20T00:54:26.039Z,99801.55
2019-06-20T00:56:54.615Z,99804.90
2019-06-20T00:59:23.212Z,99808.97
2019-06-20T01:01:51.752Z,99804.59
2019-06-20T01:04:20.363Z,99810.69
2019-06-20T01:06:48.935Z,99815.09
2019-06-20T01:09:17.534Z,99814.89
2019-06-20T01:11:46.233Z,99810.66
2019-06-20T01:14:14.834Z,99813.03
2019-06-20T01:16:43.601Z,99810.37
2019-06-20T01:19:12.127Z,99804.68
2019-06-20T01:21:40.721Z,99802.70
2019-06-20T01:24:09.313Z,99804.28
2019-06-20T01:26:37.870Z,99810.22
2019-06-20T01:29:06.467Z,99812.42
2019-06-20T01:31:35.060Z,99821.40
2019-06-20T01:34:03.695Z,99822.75
2019-06-20T01:36:32.219Z,99823.09
2019-06-20T01:39:00.810Z,99833.87
2019-06-20T01:41:29.396Z,99829.45
2019-06-20T01:43:57.937Z,99842.63
2019-06-20T01:46:26.404Z,99844.77
2019-06-20T01:48:54.998Z,99836.81
2019-06-20T01:51:23.689Z,99839.97
2019-06-20T01:53:52.171Z,99839.27
2019-06-20T01:56:20.706Z,99837.75
2019-06-20T01:58:49.344Z,99841.11
2019-06-20T02:01:18.243Z,99846.86
2019-06-20T02:03:46.868Z,99847.52
2019-06-20T02:06:15.465Z,99843.28
2019-06-20T02:08:44.023Z,99843.42
2019-06-20T02:11:12.675Z,99848.48
2019-06-20T02:13:41.385Z,99852.84
2019-06-20T02:16:09.987Z,99854.03
2019-06-20T02:18:38.509Z,99868.23
2019-06-20T02:21:07.427Z,99865.02
2019-06-20T02:23:35.984Z,99866.17
2019-06-20T02:26:04.777Z,99865.66
2019-06-20T02:28:33.401Z,99863.30
2019-06-20T02:31:01.929Z,99861.23
2019-06-20T02:33:30.542Z,99857.17
2019-06-20T02:35:59.080Z,99866.96
2019-06-20T02:38:27.789Z,99871.87
2019-06-20T02:40:56.332Z,99871.03
2019-06-20T02:43:24.913Z,99870.21
2019-06-20T02:45:53.593Z,99866.66
2019-06-20T02:48:22.188Z,99867.67
2019-06-20T02:50:50.810Z,99871.73
2019-06-20T02:53:19.444Z,99869.02
2019-06-20T02:55:47.962Z,99866.00
2019-06-20T02:58:16.588Z,99870.38
2019-06-20T03:00:56.976Z,99876.64
2019-06-20T03:03:26.492Z,99873.73
2019-06-20T03:05:55.467Z,99870.01
2019-06-20T03:08:24.402Z,99870.01
2019-06-20T03:10:53.004Z,99869.84
2019-06-20T03:13:21.597Z,99877.77
2019-06-20T03:15:50.253Z,99877.77
2019-06-20T03:18:18.949Z,99879.47
2019-06-20T03:20:47.402Z,99877.27
2019-06-20T03:23:16.017Z,99887.59
2019-06-20T03:25:44.634Z,99882.04
2019-06-20T03:28:13.160Z,99886.27
2019-06-20T03:30:41.718Z,99884.58
2019-06-20T03:33:10.245Z,99886.98
2019-06-20T03:35:38.731Z,99893.41
2019-06-20T03:38:07.306Z,99893.10
2019-06-20T03:40:35.853Z,99902.89
2019-06-20T03:43:04.436Z,99904.59
2019-06-20T03:45:33.381Z,99911.38
2019-06-20T03:48:01.915Z,99914.39
2019-06-20T03:50:30.427Z,99908.16
2019-06-20T03:53:02.018Z,99911.38
2019-06-20T03:55:32.488Z,99910.32
2019-06-20T03:58:01.672Z,99909.51
2019-06-20T04:00:33.275Z,99903.75
2019-06-20T04:03:02.063Z,99906.45
2019-06-20T04:05:30.608Z,99909.36
2019-06-20T04:07:59.223Z,99911.03
2019-06-20T04:10:27.852Z,99916.45
2019-06-20T04:12:56.478Z,99913.59
2019-06-20T04:15:25.032Z,99924.63
2019-06-20T04:17:53.621Z,99923.78
2019-06-20T04:20:22.336Z,99925.30
2019-06-20T04:22:50.784Z,99922.28
2019-06-20T04:25:19.361Z,99926.35
2019-06-20T04:27:47.816Z,99923.28
2019-06-20T04:30:16.732Z,99929.15
2019-06-20T04:32:45.326Z,99923.84
2019-06-20T04:35:14.058Z,99922.41
2019-06-20T04:37:42.714Z,99935.58
2019-06-20T04:40:11.730Z,99937.27
2019-06-20T04:42:40.268Z,99945.06
2019-06-20T04:45:16.657Z,99952.20
2019-06-20T04:47:45.179Z,99948.67
2019-06-20T04:50:13.897Z,99953.30
2019-06-20T04:52:42.505Z,99953.66
2019-06-20T04:55:11.222Z,99963.94
2019-06-20T04:57:39.846Z,99957.28
2019-06-20T05:00:09.214Z,99968.08
2019-06-20T05:02:37.776Z,99961.93
2019-06-20T05:05:07.411Z,99972.18
2019-06-20T05:07:36.008Z,99977.02
2019-06-20T05:10:07.239Z,99975.64
2019-06-20T05:12:35.834Z,99980.16
2019-06-20T05:15:05.955Z,99983.45
2019-06-20T05:17:34.497Z,99985.09
2019-06-20T05:20:03.555Z,99985.94
2019-06-20T05:22:32.043Z,99986.28
2019-06-20T05:25:00.614Z,99988.72
2019-06-20T05:27:29.137Z,100001.30
2019-06-20T05:29:57.633Z,99997.45
2019-06-20T05:32:26.256Z,99997.83
2019-06-20T05:34:54.806Z,99998.53
2019-06-20T05:37:23.253Z,100000.91
2019-06-20T05:39:51.800Z,100000.91
2019-06-20T05:42:20.337Z,100005.83
2019-06-20T05:44:48.879Z,100010.91
2019-06-20T05:47:17.416Z,100009.39
2019-06-20T05:49:45.961Z,100015.12
2019-06-20T05:52:14.533Z,100012.04
2019-06-20T05:54:43.333Z,100012.66
2019-06-20T05:57:11.925Z,100016.47
2019-06-20T05:59:40.381Z,100015.94
2019-06-20T06:02:08.945Z,100016.03
2019-06-20T06:04:37.537Z,100008.52
2019-06-20T06:07:06.134Z,100006.61
2019-06-20T06:09:34.734Z,100011.66
2019-06-20T06:12:03.163Z,100012.77
2019-06-20T06:14:31.758Z,100013.59
2019-06-20T06:17:00.435Z,100008.16
2019-06-20T06:19:28.923Z,100015.79
2019-06-20T06:21:57.480Z,100009.64
2019-06-20T06:24:26.074Z,100013.80
2019-06-20T06:26:59.589Z,100015.53
2019-06-20T06:29:24.810Z,100018.62
2019-06-20T06:31:53.401Z,100020.56
2019-06-20T06:34:22.218Z,100024.88
2019-06-20T06:36:50.847Z,100027.39
2019-06-20T06:39:19.432Z,100018.11
2019-06-20T06:41:48.069Z,100015.41
2019-06-20T06:44:16.668Z,100014.95
2019-06-20T06:46:53.162Z,100019.03
2019-06-20T06:49:15.619Z,100024.83
2019-06-20T06:51:44.235Z,100027.86
2019-06-20T06:54:12.846Z,100025.97
2019-06-20T06:56:41.448Z,100032.46
2019-06-20T06:59:10.045Z,100025.67
2019-06-20T07:01:38.665Z,100029.09
2019-06-20T07:04:07.278Z,100019.56
2019-06-20T07:06:35.901Z,100021.20
2019-06-20T07:09:08.162Z,100021.77
2019-06-20T07:11:37.084Z,100019.47
2019-06-20T07:14:06.081Z,100021.95
2019-06-20T07:16:35.302Z,100025.06
2019-06-20T07:19:03.920Z,100029.29
2019-06-20T07:21:32.654Z,100028.53
2019-06-20T07:24:01.172Z,100027.05
2019-06-20T07:26:29.772Z,100033.91
2019-06-20T07:28:58.309Z,100035.02
2019-06-20T07:31:26.783Z,100035.48
2019-06-20T07:33:55.308Z,100047.78
2019-06-20T07:36:23.873Z,100043.19
2019-06-20T07:38:52.563Z,100040.70
2019-06-20T07:41:21.402Z,100043.88
2019-06-20T07:43:50.034Z,100041.06
2019-06-20T07:46:18.576Z,100033.16
2019-06-20T07:48:47.051Z,100035.72
2019-06-20T07:51:15.593Z,100039.00
2019-06-20T07:53:44.184Z,100035.47
2019-06-20T07:56:12.897Z,100037.77
2019-06-20T07:58:41.432Z,100043.03
2019-06-20T08:01:10.063Z,100046.60
2019-06-20T08:03:38.728Z,100052.89
2019-06-20T08:06:07.345Z,100048.47
2019-06-20T08:08:36.003Z,100045.92
2019-06-20T08:11:04.720Z,100047.40
2019-06-20T08:13:33.246Z,100052.52
2019-06-20T08:16:03.838Z,100047.92
2019-06-20T08:18:32.119Z,100046.09
2019-06-20T08:21:00.709Z,100052.94
2019-06-20T08:23:29.274Z,100062.62
2019-06-20T08:25:59.194Z,100064.61
2019-06-20T08:28:28.197Z,100060.85
2019-06-20T08:30:57.832Z,100060.27
2019-06-20T08:33:27.113Z,100066.42
2019-06-20T08:35:56.910Z,100068.73
2019-06-20T08:38:26.040Z,100063.42
2019-06-20T08:40:56.553Z,100065.91
2019-06-20T08:43:24.880Z,100068.39
2019-06-20T08:45:53.471Z,100066.50
2019-06-20T08:48:22.063Z,100066.66
2019-06-20T08:50:50.678Z,100065.06
2019-06-20T08:53:19.426Z,100058.86
2019-06-20T08:55:48.077Z,100074.02
2019-06-20T08:58:16.820Z,100068.95
2019-06-20T09:00:45.614Z,100074.92
2019-06-20T09:03:14.170Z,100076.08
2019-06-20T09:05:42.765Z,100076.09
2019-06-20T09:08:12.034Z,100060.98
2019-06-20T09:10:41.826Z,100069.39
2019-06-20T09:13:12.747Z,100074.45
2019-06-20T09:15:42.744Z,100079.75
2019-06-20T09:18:11.634Z,100086.14
2019-06-20T09:20:40.433Z,100088.41
2019-06-20T09:23:09.027Z,100080.14
2019-06-20T09:25:37.756Z,100085.48
2019-06-20T09:28:06.849Z,100086.95
2019-06-20T09:30:36.602Z,100081.63
2019-06-20T09:33:05.516Z,100086.17
2019-06-20T09:35:34.213Z,100082.91
2019-06-20T09:38:03.452Z,100077.81
2019-06-20T09:40:32.287Z,100092.56
2019-06-20T09:43:00.999Z,100089.84
2019-06-20T09:45:29.671Z,100098.12
2019-06-20T09:47:58.381Z,100095.72
2019-06-20T09:50:27.128Z,100102.31
2019-06-20T09:52:56.593Z,100105.66
2019-06-20T09:55:25.391Z,100101.73
2019-06-20T09:57:53.984Z,100103.20
2019-06-20T10:00:25.483Z,100115.50
2019-06-20T10:02:55.910Z,100107.55
2019-06-20T10:05:24.454Z,100111.86
2019-06-20T10:07:54.370Z,100112.52
2019-06-20T10:10:26.051Z,100115.31
2019-06-20T10:12:55.771Z,100121.92
2019-06-20T10:15:32.982Z,100119.70
2019-06-20T10:18:01.581Z,100122.16
2019-06-20T10:22:50.958Z,100123.38
2019-06-20T10:25:19.732Z,100128.97
2019-06-20T10:27:49.711Z,100137.41
2019-06-20T10:30:21.679Z,100129.34
2019-06-20T10:32:50.977Z,100125.29
2019-06-20T10:35:20.176Z,100129.56
2019-06-20T10:37:49.059Z,100126.27
2019-06-20T10:40:20.526Z,100129.36
2019-06-20T10:42:50.232Z,100129.77
2019-06-20T10:45:21.327Z,100125.91
2019-06-20T10:47:50.920Z,100124.18
2019-06-20T10:50:20.134Z,100133.08
2019-06-20T10:52:50.025Z,100134.97
2019-06-20T10:55:19.265Z,100139.04
2019-06-20T10:57:49.643Z,100142.66
2019-06-20T11:00:30.330Z,100140.59
2019-06-20T11:02:49.357Z,100137.58
2019-06-20T11:05:19.459Z,100148.36
2019-06-20T11:07:48.124Z,100142.95
2019-06-20T11:10:18.834Z,100141.28
2019-06-20T11:12:53.784Z,100144.80
2019-06-20T11:15:18.478Z,100143.14
2019-06-20T11:17:48.332Z,100143.66
2019-06-20T11:20:17.384Z,100142.76
2019-06-20T11:22:45.934Z,100148.70
2019-06-20T11:25:14.936Z,100127.57
2019-06-20T11:27:44.722Z,100143.84
2019-06-20T11:30:18.613Z,100139.50
2019-06-20T11:32:48.757Z,100140.80
2019-06-20T11:35:17.606Z,100139.59
2019-06-20T11:37:47.201Z,100129.99
2019-06-20T11:40:16.975Z,100140.27
2019-06-20T11:42:46.900Z,100133.20
2019-06-20T11:45:16.367Z,100131.72
2019-06-20T11:47:44.883Z,100135.94
2019-06-20T11:50:15.168Z,100136.08
2019-06-20T11:52:45.704Z,100132.49
2019-06-20T11:55:14.516Z,100133.92
2019-06-20T11:57:43.161Z,100135.27
2019-06-20T12:00:12.673Z,100135.90
2019-06-20T12:02:43.652Z,100120.89
2019-06-20T12:05:11.748Z,100130.42
2019-06-20T12:07:41.631Z,100129.44
2019-06-20T12:10:11.339Z,100122.03
2019-06-20T12:12:41.027Z,100130.98
2019-06-20T12:15:10.710Z,100131.20
2019-06-20T12:17:41.265Z,100126.41
2019-06-20T12:20:10.565Z,100122.08
2019-06-20T12:22:41.713Z,100118.87
2019-06-20T12:25:10.345Z,100125.22
2019-06-20T12:27:40.803Z,100129.19
2019-06-20T12:30:11.185Z,100128.23
2019-06-20T12:32:40.668Z,100127.54
2019-06-20T12:35:10.012Z,100129.50
2019-06-20T12:37:40.364Z,100127.20
2019-06-20T12:40:09.420Z,100127.41
2019-06-20T12:42:39.318Z,100133.42
2019-06-20T12:45:09.647Z,100127.22
2019-06-20T12:47:38.830Z,100126.06
2019-06-20T12:50:08.961Z,100127.23
2019-06-20T12:52:38.908Z,100126.18
2019-06-20T12:55:08.067Z,100123.14
2019-06-20T12:57:38.503Z,100123.27
2019-06-20T13:00:12.364Z,100134.33
2019-06-20T13:02:41.999Z,100135.39
2019-06-20T13:05:11.687Z,100136.55
2019-06-20T13:07:41.982Z,100135.09
2019-06-20T13:10:11.139Z,100143.93
2019-06-20T13:12:42.314Z,100145.83
2019-06-20T13:16:59.692Z,100140.16
2019-06-20T13:19:28.432Z,100138.30
2019-06-20T13:21:57.091Z,100147.73
2019-06-20T13:24:25.579Z,100136.80
2019-06-20T13:26:54.189Z,100142.88
2019-06-20T13:29:22.844Z,100142.20
2019-06-20T13:32:01.840Z,100152.69
2019-06-20T13:34:21.766Z,100149.52
2019-06-20T13:36:50.399Z,100144.26
2019-06-20T13:39:19.053Z,100145.08
2019-06-20T13:41:48.065Z,100156.17
2019-06-20T13:44:17.634Z,100149.02
2019-06-20T13:46:46.608Z,100153.63
2019-06-20T13:49:15.223Z,100151.16
2019-06-20T13:51:43.724Z,100149.31
2019-06-20T13:54:12.265Z,100152.44
2019-06-20T13:56:42.481Z,100152.66
2019-06-20T13:59:11.265Z,100150.78
2019-06-20T14:01:41.448Z,100161.26
2019-06-20T14:04:10.331Z,100164.61
2019-06-20T14:06:39.075Z,100152.06
2019-06-20T14:09:08.035Z,100146.02
2019-06-20T14:11:36.667Z,100154.89
2019-06-20T14:14:05.572Z,100153.20
2019-06-20T14:16:34.186Z,100144.34
2019-06-20T14:19:02.751Z,100145.17
2019-06-20T14:21:31.398Z,100146.47
2019-06-20T14:24:00.024Z,100150.45
2019-06-20T14:26:28.579Z,100147.71
2019-06-20T14:28:57.232Z,100146.44
2019-06-20T14:31:25.843Z,100147.84
2019-06-20T14:33:55.575Z,100143.55
2019-06-20T14:36:24.269Z,100151.33
2019-06-20T14:38:53.806Z,100154.72
2019-06-20T14:41:22.599Z,100155.16
2019-06-20T14:43:51.828Z,100152.89
2019-06-20T14:46:20.591Z,100162.15
2019-06-20T14:48:50.192Z,100164.27
2019-06-20T14:51:18.974Z,100166.20
2019-06-20T14:53:47.562Z,100164.54
2019-06-20T14:56:16.193Z,100162.84
2019-06-20T14:58:45.498Z,100166.21
2019-06-20T15:01:15.160Z,100164.53
2019-06-20T15:03:45.615Z,100167.92
2019-06-20T15:06:14.066Z,100169.37
2019-06-20T15:08:43.952Z,100175.87
2019-06-20T15:11:12.867Z,100176.10
2019-06-20T15:13:41.369Z,100175.69
2019-06-20T15:16:10.053Z,100177.95
2019-06-20T15:18:38.608Z,100182.95
2019-06-20T15:21:07.242Z,100181.27
2019-06-20T15:23:35.856Z,100173.89
2019-06-20T15:26:04.431Z,100177.66
2019-06-20T15:28:33.104Z,100176.63
2019-06-20T15:31:01.636Z,100180.80
2019-06-20T15:33:30.247Z,100177.03
2019-06-20T15:35:58.863Z,100172.39
2019-06-20T15:38:27.489Z,100172.39
2019-06-20T15:40:56.055Z,100173.20
2019-06-20T15:43:24.689Z,100169.22
2019-06-20T15:45:53.871Z,100159.34
2019-06-20T15:48:22.643Z,100170.44
2019-06-20T15:50:51.194Z,100167.27
2019-06-20T15:53:19.713Z,100159.93
2019-06-20T15:55:48.256Z,100163.25
2019-06-20T15:58:16.718Z,100166.37
2019-06-20T16:00:45.523Z,100170.98
2019-06-20T16:03:14.784Z,100171.38
2019-06-20T16:05:43.512Z,100170.75
2019-06-20T16:08:12.123Z,100174.73
2019-06-20T16:10:40.759Z,100178.94
2019-06-20T16:13:09.385Z,100193.02
2019-06-20T16:15:37.998Z,100189.89
2019-06-20T16:18:06.549Z,100182.74
2019-06-20T16:20:35.248Z,100192.39
2019-06-20T16:23:03.842Z,100193.64
2019-06-20T16:25:32.373Z,100189.20
2019-06-20T16:28:00.981Z,100188.09
2019-06-20T16:30:33.604Z,100191.41
2019-06-20T16:33:00.770Z,100184.28
2019-06-20T16:35:29.238Z,100187.20
2019-06-20T16:37:57.871Z,100185.31
2019-06-20T16:40:44.709Z,100179.25
2019-06-20T16:43:13.321Z,100176.60
2019-06-20T16:45:42.134Z,100185.45
2019-06-20T16:48:10.951Z,100187.80
2019-06-20T16:50:39.717Z,100185.95
2019-06-20T16:53:08.516Z,100183.23
2019-06-20T16:55:37.237Z,100188.09
2019-06-20T16:58:07.450Z,100188.73
2019-06-20T17:00:36.214Z,100186.00
2019-06-20T17:03:05.701Z,100193.11
2019-06-20T17:05:34.308Z,100200.86
2019-06-20T17:08:02.846Z,100208.01
2019-06-20T17:10:31.507Z,100216.82
2019-06-20T17:13:00.272Z,100216.82
2019-06-20T17:15:28.890Z,100220.80
2019-06-20T17:17:57.715Z,100221.42
2019-06-20T17:20:26.404Z,100234.56
2019-06-20T17:22:55.057Z,100236.95
2019-06-20T17:25:23.936Z,100246.64
2019-06-20T17:27:52.643Z,100248.64
2019-06-20T17:30:23.022Z,100266.92
2019-06-20T17:32:51.641Z,100282.09
2019-06-20T17:35:20.369Z,100278.41
2019-06-20T17:37:48.955Z,100276.33
2019-06-20T17:40:18.481Z,100281.36
2019-06-20T17:42:47.089Z,100278.33
2019-06-20T17:45:16.383Z,100278.84
2019-06-20T17:47:44.986Z,100286.95
2019-06-20T17:50:14.489Z,100288.19
2019-06-20T17:52:43.202Z,100290.97
2019-06-20T17:55:12.605Z,100289.00
2019-06-20T17:57:41.464Z,100281.58
2019-06-20T18:00:12.672Z,100278.56
2019-06-20T18:02:41.491Z,100290.63
2019-06-20T18:05:10.327Z,100299.28
2019-06-20T18:07:38.865Z,100307.47
2019-06-20T18:10:07.922Z,100311.94
2019-06-20T18:12:36.551Z,100302.80
2019-06-20T18:15:08.843Z,100306.41
2019-06-20T18:17:37.323Z,100303.08
2019-06-20T18:20:07.252Z,100299.55
2019-06-20T18:22:35.862Z,100303.94
2019-06-20T18:25:06.881Z,100301.77
2019-06-20T18:27:35.517Z,100287.89
2019-06-20T18:30:06.200Z,100289.09
2019-06-20T18:32:34.761Z,100291.95
2019-06-20T18:35:04.390Z,100289.44
2019-06-20T18:37:32.893Z,100297.73
2019-06-20T18:40:01.373Z,100303.14
2019-06-20T18:42:30.105Z,100303.33
2019-06-20T18:44:58.646Z,100306.73
2019-06-20T18:47:27.443Z,100295.89
2019-06-20T18:49:56.051Z,100305.06
2019-06-20T18:52:24.662Z,100314.02
2019-06-20T18:54:53.314Z,100317.91
2019-06-20T18:57:21.930Z,100319.11
2019-06-20T18:59:50.565Z,100321.31
2019-06-20T19:02:19.091Z,100326.06
2019-06-20T19:04:50.723Z,100322.69
2019-06-20T19:07:17.940Z,100328.45
2019-06-20T19:09:46.575Z,100331.34
2019-06-20T19:12:15.156Z,100323.56
2019-06-20T19:14:43.676Z,100328.28
2019-06-20T19:17:14.747Z,100328.66
2019-06-20T19:19:42.551Z,100324.58
2019-06-20T19:22:11.101Z,100328.82
2019-06-20T19:24:39.672Z,100318.66
2019-06-20T19:27:08.302Z,100333.58
2019-06-20T19:29:36.912Z,100337.62
2019-06-20T19:32:05.535Z,100335.25
2019-06-20T19:34:34.112Z,100343.05
2019-06-20T19:37:02.737Z,100345.08
2019-06-20T19:39:31.290Z,100348.98
2019-06-20T19:41:59.881Z,100365.55
2019-06-20T19:44:28.355Z,100365.03
2019-06-20T19:46:56.989Z,100372.45
2019-06-20T19:49:25.585Z,100378.87
2019-06-20T19:51:54.236Z,100372.78
2019-06-20T19:54:23.098Z,100383.61
2019-06-20T19:56:51.708Z,100383.61
2019-06-20T19:59:20.321Z,100391.91
2019-06-20T20:01:48.952Z,100398.15
2019-06-20T20:04:17.563Z,100401.70
2019-06-20T20:06:46.213Z,100408.97
2019-06-20T20:09:14.925Z,100408.97
2019-06-20T20:11:43.603Z,100419.98
2019-06-20T20:14:12.228Z,100420.98
2019-06-20T20:16:40.838Z,100425.54
2019-06-20T20:19:09.454Z,100420.13
2019-06-20T20:21:37.998Z,100422.16
2019-06-20T20:24:07.054Z,100435.55
2019-06-20T20:26:35.725Z,100433.66
2019-06-20T20:29:04.360Z,100438.41
2019-06-20T20:31:33.024Z,100431.31
2019-06-20T20:34:01.743Z,100428.94
2019-06-20T20:36:30.319Z,100417.41
2019-06-20T20:38:58.961Z,100426.38
2019-06-20T20:41:27.659Z,100440.09
2019-06-20T20:43:56.181Z,100434.82
2019-06-20T20:46:24.753Z,100430.59
2019-06-20T20:48:53.377Z,100432.44
2019-06-20T20:51:22.173Z,100430.59
2019-06-20T20:53:50.746Z,100423.50
2019-06-20T20:56:19.360Z,100426.21
2019-06-20T20:58:48.171Z,100429.91
2019-06-20T21:01:22.375Z,100427.21
2019-06-20T21:03:50.998Z,100427.21
2019-06-20T21:06:19.614Z,100435.33
2019-06-20T21:08:48.370Z,100437.86
2019-06-20T21:11:16.995Z,100430.59
2019-06-20T21:13:45.628Z,100437.70
2019-06-20T21:16:14.172Z,100444.80
2019-06-20T21:18:42.726Z,100446.50
2019-06-20T21:21:11.309Z,100445.64
2019-06-20T21:23:39.907Z,100451.77
2019-06-20T21:26:08.465Z,100457.33
2019-06-20T21:28:37.065Z,100459.18
2019-06-20T21:31:05.690Z,100457.66
2019-06-20T21:33:34.260Z,100457.30
2019-06-20T21:36:08.316Z,100469.30
2019-06-20T21:38:33.232Z,100469.80
2019-06-20T21:41:01.914Z,100465.71
2019-06-20T21:43:30.458Z,100472.62
2019-06-20T21:45:59.022Z,100472.09
2019-06-20T21:48:27.495Z,100480.52
2019-06-20T21:50:56.252Z,100465.11
2019-06-20T21:53:24.797Z,100478.64
2019-06-20T21:55:53.420Z,100476.25
2019-06-20T21:58:22.071Z,100484.86
2019-06-20T22:00:54.249Z,100485.17
2019-06-20T22:03:22.886Z,100482.11
2019-06-20T22:05:51.368Z,100486.84
2019-06-20T22:08:19.980Z,100498.97
2019-06-20T22:10:48.778Z,100484.09
2019-06-20T22:13:17.373Z,100495.84
2019-06-20T22:15:46.195Z,100495.84
2019-06-20T22:18:14.896Z,100504.50
2019-06-20T22:20:43.535Z,100506.17
2019-06-20T22:23:12.089Z,100498.91
2019-06-20T22:25:40.707Z,100491.48
2019-06-20T22:28:09.358Z,100498.60
2019-06-20T22:30:52.992Z,100499.59
2019-06-20T22:33:21.612Z,100500.63
2019-06-20T22:35:50.255Z,100505.31
2019-06-20T22:38:18.826Z,100506.66
2019-06-20T22:40:47.655Z,100506.97
2019-06-20T22:43:16.306Z,100513.00
2019-06-20T22:45:45.242Z,100509.62
2019-06-20T22:48:13.860Z,100508.22
2019-06-20T22:50:42.489Z,100515.61
2019-06-20T22:53:11.092Z,100520.16
2019-06-20T22:55:39.681Z,100510.20
2019-06-20T22:58:08.291Z,100514.75
2019-06-20T23:00:36.965Z,100522.73
2019-06-20T23:03:06.222Z,100518.20
2019-06-20T23:05:35.440Z,100522.45
2019-06-20T23:08:04.278Z,100520.42
2019-06-20T23:10:32.898Z,100515.70
2019-06-20T23:13:01.519Z,100513.69
2019-06-20T23:15:30.096Z,100516.38
2019-06-20T23:17:58.643Z,100512.00
2019-06-20T23:20:27.292Z,100515.02
2019-06-20T23:22:55.988Z,100521.59
2019-06-20T23:25:24.723Z,100527.27
2019-06-20T23:27:53.325Z,100522.04
2019-06-20T23:30:22.670Z,100528.44
2019-06-20T23:32:51.220Z,100533.84
2019-06-20T23:35:19.847Z,100536.55
2019-06-20T23:37:48.396Z,100539.25
2019-06-20T23:40:17.533Z,100540.24
2019-06-20T23:42:46.248Z,100537.53
2019-06-20T23:45:15.191Z,100546.67
2019-06-20T23:47:43.903Z,100545.27
2019-06-20T23:50:18.889Z,100539.48
2019-06-20T23:52:50.452Z,100537.41
2019-06-20T23:55:19.062Z,100535.63
2019-06-20T23:57:47.636Z,100532.84
